sensor_id;sensor_type;location;lat;lon;timestamp;pressure;altitude;pressure_sealevel;temperature;humidity
55263;BME280;41125;48.752;9.168;2023-05-29T00:00:06;96879.41;;;14.99;53.55
55263;BME280;41125;48.752;9.168;2023-05-29T00:00:38;96882.47;;;14.97;54.68
55263;BME280;41125;48.752;9.168;2023-05-29T00:01:09;96878.44;;;14.95;54.87
55263;BME280;41125;48.752;9.168;2023-05-29T00:01:41;96879.56;;;14.94;53.87
55263;BME280;41125;48.752;9.168;2023-05-29T00:02:12;96875.22;;;14.93;54.63
55263;BME280;41125;48.752;9.168;2023-05-29T00:02:44;96882.31;;;14.94;54.18
55263;BME280;41125;48.752;9.168;2023-05-29T00:03:15;96874.13;;;14.94;53.99
55263;BME280;41125;48.752;9.168;2023-05-29T00:03:48;96880.06;;;14.96;53.93
55263;BME280;41125;48.752;9.168;2023-05-29T00:04:23;96877.31;;;14.96;53.86
55263;BME280;41125;48.752;9.168;2023-05-29T00:04:54;96873.00;;;14.95;55.03
55263;BME280;41125;48.752;9.168;2023-05-29T00:05:25;96878.63;;;14.90;55.72
55263;BME280;41125;48.752;9.168;2023-05-29T00:05:57;96888.09;;;14.84;56.70
55263;BME280;41125;48.752;9.168;2023-05-29T00:06:28;96891.31;;;14.77;57.86
55263;BME280;41125;48.752;9.168;2023-05-29T00:07:01;96883.44;;;14.75;56.05
55263;BME280;41125;48.752;9.168;2023-05-29T00:07:32;96888.56;;;14.77;55.65
55263;BME280;41125;48.752;9.168;2023-05-29T00:08:04;96884.72;;;14.78;55.85
55263;BME280;41125;48.752;9.168;2023-05-29T00:08:37;96886.16;;;14.75;56.41
55263;BME280;41125;48.752;9.168;2023-05-29T00:09:08;96886.00;;;14.72;56.54
55263;BME280;41125;48.752;9.168;2023-05-29T00:09:42;96882.47;;;14.71;56.13
55263;BME280;41125;48.752;9.168;2023-05-29T00:10:16;96880.53;;;14.72;56.22
55263;BME280;41125;48.752;9.168;2023-05-29T00:10:47;96887.44;;;14.69;57.08
55263;BME280;41125;48.752;9.168;2023-05-29T00:11:19;96884.06;;;14.72;56.20
55263;BME280;41125;48.752;9.168;2023-05-29T00:11:52;96889.22;;;14.74;56.04
55263;BME280;41125;48.752;9.168;2023-05-29T00:12:24;96879.72;;;14.71;57.38
55263;BME280;41125;48.752;9.168;2023-05-29T00:12:56;96887.75;;;14.68;57.30
55263;BME280;41125;48.752;9.168;2023-05-29T00:13:28;96890.31;;;14.64;58.04
55263;BME280;41125;48.752;9.168;2023-05-29T00:13:59;96887.09;;;14.62;57.24
55263;BME280;41125;48.752;9.168;2023-05-29T00:14:31;96894.97;;;14.55;57.59
55263;BME280;41125;48.752;9.168;2023-05-29T00:15:03;96893.69;;;14.53;57.20
55263;BME280;41125;48.752;9.168;2023-05-29T00:15:34;96888.22;;;14.53;57.48
55263;BME280;41125;48.752;9.168;2023-05-29T00:16:07;96887.41;;;14.52;58.13
55263;BME280;41125;48.752;9.168;2023-05-29T00:16:40;96895.12;;;14.50;57.79
55263;BME280;41125;48.752;9.168;2023-05-29T00:17:15;96890.28;;;14.47;57.90
55263;BME280;41125;48.752;9.168;2023-05-29T00:17:46;96902.66;;;14.45;57.92
55263;BME280;41125;48.752;9.168;2023-05-29T00:18:18;96900.25;;;14.43;57.13
55263;BME280;41125;48.752;9.168;2023-05-29T00:18:50;96890.13;;;14.44;56.86
55263;BME280;41125;48.752;9.168;2023-05-29T00:19:23;96881.63;;;14.45;57.00
55263;BME280;41125;48.752;9.168;2023-05-29T00:19:56;96883.22;;;14.46;56.74
55263;BME280;41125;48.752;9.168;2023-05-29T00:20:27;96884.84;;;14.47;56.80
55263;BME280;41125;48.752;9.168;2023-05-29T00:20:59;96880.97;;;14.48;56.84
55263;BME280;41125;48.752;9.168;2023-05-29T00:21:30;96886.94;;;14.50;56.55
55263;BME280;41125;48.752;9.168;2023-05-29T00:22:02;96886.63;;;14.52;56.78
55263;BME280;41125;48.752;9.168;2023-05-29T00:22:33;96878.09;;;14.53;57.06
55263;BME280;41125;48.752;9.168;2023-05-29T00:23:04;96880.03;;;14.53;56.69
55263;BME280;41125;48.752;9.168;2023-05-29T00:23:38;96886.63;;;14.52;58.49
55263;BME280;41125;48.752;9.168;2023-05-29T00:24:10;96874.88;;;14.51;57.15
55263;BME280;41125;48.752;9.168;2023-05-29T00:24:42;96880.34;;;14.51;57.37
55263;BME280;41125;48.752;9.168;2023-05-29T00:25:14;96879.88;;;14.49;57.94
55263;BME280;41125;48.752;9.168;2023-05-29T00:25:46;96895.75;;;14.47;59.09
55263;BME280;41125;48.752;9.168;2023-05-29T00:26:18;96889.31;;;14.43;58.73
55263;BME280;41125;48.752;9.168;2023-05-29T00:26:49;96888.94;;;14.36;59.09
55263;BME280;41125;48.752;9.168;2023-05-29T00:27:20;96881.88;;;14.35;58.31
55263;BME280;41125;48.752;9.168;2023-05-29T00:27:51;96883.47;;;14.36;58.14
55263;BME280;41125;48.752;9.168;2023-05-29T00:28:23;96885.91;;;14.37;57.55
55263;BME280;41125;48.752;9.168;2023-05-29T00:28:54;96876.28;;;14.40;58.03
55263;BME280;41125;48.752;9.168;2023-05-29T00:29:25;96875.19;;;14.41;57.59
55263;BME280;41125;48.752;9.168;2023-05-29T00:29:56;96883.66;;;14.39;59.82
55263;BME280;41125;48.752;9.168;2023-05-29T00:30:28;96887.16;;;14.31;59.75
55263;BME280;41125;48.752;9.168;2023-05-29T00:31:01;96885.50;;;14.22;59.96
55263;BME280;41125;48.752;9.168;2023-05-29T00:31:33;96885.69;;;14.17;60.38
55263;BME280;41125;48.752;9.168;2023-05-29T00:32:05;96881.34;;;14.16;59.40
55263;BME280;41125;48.752;9.168;2023-05-29T00:32:36;96883.44;;;14.19;58.95
55263;BME280;41125;48.752;9.168;2023-05-29T00:33:07;96876.87;;;14.20;59.36
55263;BME280;41125;48.752;9.168;2023-05-29T00:33:39;96878.13;;;14.22;58.99
55263;BME280;41125;48.752;9.168;2023-05-29T00:34:10;96878.63;;;14.24;58.78
55263;BME280;41125;48.752;9.168;2023-05-29T00:34:42;96875.91;;;14.24;58.87
55263;BME280;41125;48.752;9.168;2023-05-29T00:35:13;96872.84;;;14.26;58.61
55263;BME280;41125;48.752;9.168;2023-05-29T00:35:45;96878.31;;;14.26;58.70
55263;BME280;41125;48.752;9.168;2023-05-29T00:36:16;96867.38;;;14.26;58.46
55263;BME280;41125;48.752;9.168;2023-05-29T00:36:48;96875.09;;;14.24;59.15
55263;BME280;41125;48.752;9.168;2023-05-29T00:37:19;96875.72;;;14.21;59.50
55263;BME280;41125;48.752;9.168;2023-05-29T00:37:53;96877.00;;;14.15;60.13
55263;BME280;41125;48.752;9.168;2023-05-29T00:38:24;96883.09;;;14.12;60.06
55263;BME280;41125;48.752;9.168;2023-05-29T00:38:55;96872.19;;;14.12;59.42
55263;BME280;41125;48.752;9.168;2023-05-29T00:39:27;96873.78;;;14.13;59.25
55263;BME280;41125;48.752;9.168;2023-05-29T00:39:58;96871.06;;;14.13;59.44
55263;BME280;41125;48.752;9.168;2023-05-29T00:40:29;96869.94;;;14.14;59.27
55263;BME280;41125;48.752;9.168;2023-05-29T00:41:01;96871.56;;;14.15;59.00
55263;BME280;41125;48.752;9.168;2023-05-29T00:41:35;96873.16;;;14.16;58.97
55263;BME280;41125;48.752;9.168;2023-05-29T00:42:06;96883.91;;;14.12;60.74
55263;BME280;41125;48.752;9.168;2023-05-29T00:42:38;96883.69;;;14.00;61.83
55263;BME280;41125;48.752;9.168;2023-05-29T00:43:11;96884.75;;;13.90;61.26
55263;BME280;41125;48.752;9.168;2023-05-29T00:43:43;96884.44;;;13.83;61.43
55263;BME280;41125;48.752;9.168;2023-05-29T00:44:14;96888.75;;;13.84;60.83
55263;BME280;41125;48.752;9.168;2023-05-29T00:44:46;96881.03;;;13.86;60.38
55263;BME280;41125;48.752;9.168;2023-05-29T00:45:17;96879.62;;;13.89;60.36
55263;BME280;41125;48.752;9.168;2023-05-29T00:45:50;96876.25;;;13.92;60.22
55263;BME280;41125;48.752;9.168;2023-05-29T00:46:22;96878.66;;;13.93;60.44
55263;BME280;41125;48.752;9.168;2023-05-29T00:46:54;96879.00;;;13.92;61.20
55263;BME280;41125;48.752;9.168;2023-05-29T00:47:25;96887.00;;;13.88;61.59
55263;BME280;41125;48.752;9.168;2023-05-29T00:47:58;96875.44;;;13.83;61.37
55263;BME280;41125;48.752;9.168;2023-05-29T00:48:29;96874.63;;;13.82;61.04
55263;BME280;41125;48.752;9.168;2023-05-29T00:49:01;96880.91;;;13.83;60.92
55263;BME280;41125;48.752;9.168;2023-05-29T00:49:34;96877.84;;;13.84;60.37
55263;BME280;41125;48.752;9.168;2023-05-29T00:50:09;96877.84;;;13.84;61.18
55263;BME280;41125;48.752;9.168;2023-05-29T00:50:45;96881.53;;;13.80;62.24
55263;BME280;41125;48.752;9.168;2023-05-29T00:51:17;96872.03;;;13.77;61.56
55263;BME280;41125;48.752;9.168;2023-05-29T00:51:51;96876.37;;;13.78;61.45
55263;BME280;41125;48.752;9.168;2023-05-29T00:52:27;96873.66;;;13.78;61.02
55263;BME280;41125;48.752;9.168;2023-05-29T00:53:00;96874.44;;;13.79;62.10
55263;BME280;41125;48.752;9.168;2023-05-29T00:53:33;96878.91;;;13.74;62.64
55263;BME280;41125;48.752;9.168;2023-05-29T00:54:07;96877.13;;;13.70;63.39
55263;BME280;41125;48.752;9.168;2023-05-29T00:54:38;96877.94;;;13.70;62.30
55263;BME280;41125;48.752;9.168;2023-05-29T00:55:10;96868.94;;;13.70;62.58
55263;BME280;41125;48.752;9.168;2023-05-29T00:55:42;96875.53;;;13.69;62.45
55263;BME280;41125;48.752;9.168;2023-05-29T00:56:14;96874.72;;;13.68;62.03
55263;BME280;41125;48.752;9.168;2023-05-29T00:56:45;96870.88;;;13.69;62.19
55263;BME280;41125;48.752;9.168;2023-05-29T00:57:17;96866.22;;;13.70;62.17
55263;BME280;41125;48.752;9.168;2023-05-29T00:57:49;96869.44;;;13.72;61.12
55263;BME280;41125;48.752;9.168;2023-05-29T00:58:21;96870.25;;;13.72;61.21
55263;BME280;41125;48.752;9.168;2023-05-29T00:58:53;96872.16;;;13.72;61.19
55263;BME280;41125;48.752;9.168;2023-05-29T00:59:27;96874.91;;;13.72;61.45
55263;BME280;41125;48.752;9.168;2023-05-29T01:00:02;96872.66;;;13.74;61.52
55263;BME280;41125;48.752;9.168;2023-05-29T01:00:36;96867.22;;;13.74;61.76
55263;BME280;41125;48.752;9.168;2023-05-29T01:01:09;96865.59;;;13.73;62.00
55263;BME280;41125;48.752;9.168;2023-05-29T01:01:42;96872.16;;;13.72;62.84
55263;BME280;41125;48.752;9.168;2023-05-29T01:02:15;96870.56;;;13.71;62.16
55263;BME280;41125;48.752;9.168;2023-05-29T01:02:47;96873.28;;;13.71;61.40
55263;BME280;41125;48.752;9.168;2023-05-29T01:03:20;96870.56;;;13.71;61.67
55263;BME280;41125;48.752;9.168;2023-05-29T01:03:55;96869.44;;;13.72;61.33
55263;BME280;41125;48.752;9.168;2023-05-29T01:04:28;96870.25;;;13.72;61.15
55263;BME280;41125;48.752;9.168;2023-05-29T01:04:59;96866.72;;;13.72;61.15
55263;BME280;41125;48.752;9.168;2023-05-29T01:05:35;96867.84;;;13.71;61.55
55263;BME280;41125;48.752;9.168;2023-05-29T01:06:09;96871.69;;;13.70;61.42
55263;BME280;41125;48.752;9.168;2023-05-29T01:06:41;96870.06;;;13.69;62.15
55263;BME280;41125;48.752;9.168;2023-05-29T01:07:12;96866.03;;;13.66;62.53
55263;BME280;41125;48.752;9.168;2023-05-29T01:07:44;96874.53;;;13.65;62.54
55263;BME280;41125;48.752;9.168;2023-05-29T01:08:16;96868.28;;;13.64;61.66
55263;BME280;41125;48.752;9.168;2023-05-29T01:08:47;96877.25;;;13.65;61.81
55263;BME280;41125;48.752;9.168;2023-05-29T01:09:19;96872.91;;;13.64;61.86
55263;BME280;41125;48.752;9.168;2023-05-29T01:09:51;96869.88;;;13.65;61.75
55263;BME280;41125;48.752;9.168;2023-05-29T01:10:24;96863.00;;;13.68;61.56
55263;BME280;41125;48.752;9.168;2023-05-29T01:11:02;96868.47;;;13.68;61.33
55263;BME280;41125;48.752;9.168;2023-05-29T01:13:41;96866.31;;;13.56;61.92
55263;BME280;41125;48.752;9.168;2023-05-29T01:16:13;96866.00;;;13.58;62.96
55263;BME280;41125;48.752;9.168;2023-05-29T01:16:55;96880.56;;;13.53;64.23
55263;BME280;41125;48.752;9.168;2023-05-29T01:17:37;96874.44;;;13.48;64.45
55263;BME280;41125;48.752;9.168;2023-05-29T01:18:51;96871.22;;;13.46;63.01
55263;BME280;41125;48.752;9.168;2023-05-29T01:22:25;96868.00;;;13.44;63.09
55263;BME280;41125;48.752;9.168;2023-05-29T01:23:27;96863.69;;;13.43;62.92
55263;BME280;41125;48.752;9.168;2023-05-29T01:24:32;96860.44;;;13.40;62.66
55263;BME280;41125;48.752;9.168;2023-05-29T01:25:11;96863.97;;;13.41;62.57
55263;BME280;41125;48.752;9.168;2023-05-29T01:26:21;96861.56;;;13.39;62.76
55263;BME280;41125;48.752;9.168;2023-05-29T01:27:08;96863.00;;;13.37;63.02
55263;BME280;41125;48.752;9.168;2023-05-29T01:27:41;96861.37;;;13.36;62.92
55263;BME280;41125;48.752;9.168;2023-05-29T01:28:17;96869.25;;;13.37;62.25
55263;BME280;41125;48.752;9.168;2023-05-29T01:28:57;96863.81;;;13.37;63.12
55263;BME280;41125;48.752;9.168;2023-05-29T01:29:34;96854.81;;;13.37;62.80
55263;BME280;41125;48.752;9.168;2023-05-29T01:30:08;96858.34;;;13.37;63.05
55263;BME280;41125;48.752;9.168;2023-05-29T01:30:41;96862.19;;;13.36;62.63
55263;BME280;41125;48.752;9.168;2023-05-29T01:31:17;96862.19;;;13.36;62.80
55263;BME280;41125;48.752;9.168;2023-05-29T01:31:50;96857.53;;;13.37;62.31
55263;BME280;41125;48.752;9.168;2023-05-29T01:32:21;96857.53;;;13.37;62.67
55263;BME280;41125;48.752;9.168;2023-05-29T01:32:54;96863.00;;;13.37;62.62
55263;BME280;41125;48.752;9.168;2023-05-29T01:33:27;96856.25;;;13.34;62.75
55263;BME280;41125;48.752;9.168;2023-05-29T01:33:59;96858.16;;;13.34;62.23
55263;BME280;41125;48.752;9.168;2023-05-29T01:34:31;96862.81;;;13.33;62.95
55263;BME280;41125;48.752;9.168;2023-05-29T01:35:03;96857.34;;;13.33;62.58
55263;BME280;41125;48.752;9.168;2023-05-29T01:35:35;96857.34;;;13.33;63.21
55263;BME280;41125;48.752;9.168;2023-05-29T01:36:08;96859.28;;;13.33;63.16
55263;BME280;41125;48.752;9.168;2023-05-29T01:36:40;96853.03;;;13.32;62.96
55263;BME280;41125;48.752;9.168;2023-05-29T01:37:11;96855.75;;;13.32;62.89
55263;BME280;41125;48.752;9.168;2023-05-29T01:37:42;96850.28;;;13.32;62.92
55263;BME280;41125;48.752;9.168;2023-05-29T01:38:13;96855.75;;;13.32;62.51
55263;BME280;41125;48.752;9.168;2023-05-29T01:38:45;96854.13;;;13.31;62.82
55263;BME280;41125;48.752;9.168;2023-05-29T01:39:17;96857.66;;;13.32;62.64
55263;BME280;41125;48.752;9.168;2023-05-29T01:39:50;96856.84;;;13.31;63.03
55263;BME280;41125;48.752;9.168;2023-05-29T01:40:21;96860.37;;;13.32;62.57
55263;BME280;41125;48.752;9.168;2023-05-29T01:40:53;96858.47;;;13.32;62.63
55263;BME280;41125;48.752;9.168;2023-05-29T01:41:25;96855.75;;;13.32;62.15
55263;BME280;41125;48.752;9.168;2023-05-29T01:41:58;96856.06;;;13.31;62.46
55263;BME280;41125;48.752;9.168;2023-05-29T01:42:30;96858.78;;;13.31;62.54
55263;BME280;41125;48.752;9.168;2023-05-29T01:43:02;96859.41;;;13.28;62.58
55263;BME280;41125;48.752;9.168;2023-05-29T01:43:34;96865.66;;;13.28;62.39
55263;BME280;41125;48.752;9.168;2023-05-29T01:44:07;96858.59;;;13.27;62.57
55263;BME280;41125;48.752;9.168;2023-05-29T01:44:39;96857.47;;;13.28;62.86
55263;BME280;41125;48.752;9.168;2023-05-29T01:45:11;96871.09;;;13.28;62.73
55263;BME280;41125;48.752;9.168;2023-05-29T01:45:44;96861.81;;;13.29;62.28
55263;BME280;41125;48.752;9.168;2023-05-29T01:46:17;96864.53;;;13.29;62.91
55263;BME280;41125;48.752;9.168;2023-05-29T01:46:49;96861.81;;;13.29;62.81
55263;BME280;41125;48.752;9.168;2023-05-29T01:47:22;96865.66;;;13.28;62.97
55263;BME280;41125;48.752;9.168;2023-05-29T01:47:55;96870.91;;;13.25;63.93
55263;BME280;41125;48.752;9.168;2023-05-29T01:48:27;96865.78;;;13.23;63.60
55263;BME280;41125;48.752;9.168;2023-05-29T01:49:00;96863.06;;;13.23;63.11
55263;BME280;41125;48.752;9.168;2023-05-29T01:49:31;96872.84;;;13.24;62.94
55263;BME280;41125;48.752;9.168;2023-05-29T01:50:04;96863.56;;;13.25;62.74
55263;BME280;41125;48.752;9.168;2023-05-29T01:50:36;96870.91;;;13.25;63.82
55263;BME280;41125;48.752;9.168;2023-05-29T01:51:09;96861.44;;;13.22;63.58
55263;BME280;41125;48.752;9.168;2023-05-29T01:51:44;96867.19;;;13.21;63.68
55263;BME280;41125;48.752;9.168;2023-05-29T01:52:15;96870.53;;;13.18;64.13
55263;BME280;41125;48.752;9.168;2023-05-29T01:52:46;96870.34;;;13.14;63.91
55263;BME280;41125;48.752;9.168;2023-05-29T01:53:18;96867.63;;;13.14;63.72
55263;BME280;41125;48.752;9.168;2023-05-29T01:53:49;96863.28;;;13.13;63.74
55263;BME280;41125;48.752;9.168;2023-05-29T01:54:21;96863.28;;;13.13;63.00
55263;BME280;41125;48.752;9.168;2023-05-29T01:54:52;96866.81;;;13.14;63.43
55263;BME280;41125;48.752;9.168;2023-05-29T01:55:23;96866.00;;;13.13;63.50
55263;BME280;41125;48.752;9.168;2023-05-29T01:55:55;96870.34;;;13.14;63.06
55263;BME280;41125;48.752;9.168;2023-05-29T01:56:28;96867.34;;;13.16;63.16
55263;BME280;41125;48.752;9.168;2023-05-29T01:57:00;96867.34;;;13.16;62.93
55263;BME280;41125;48.752;9.168;2023-05-29T01:57:33;96864.28;;;13.17;63.05
55263;BME280;41125;48.752;9.168;2023-05-29T01:58:07;96867.81;;;13.18;63.07
55263;BME280;41125;48.752;9.168;2023-05-29T01:58:40;96860.44;;;13.18;62.88
55263;BME280;41125;48.752;9.168;2023-05-29T01:59:12;96869.91;;;13.21;62.71
55263;BME280;41125;48.752;9.168;2023-05-29T01:59:44;96863.66;;;13.20;62.59
55263;BME280;41125;48.752;9.168;2023-05-29T02:00:17;96862.06;;;13.19;62.75
55263;BME280;41125;48.752;9.168;2023-05-29T02:00:50;96871.84;;;13.20;62.64
55263;BME280;41125;48.752;9.168;2023-05-29T02:01:22;96866.41;;;13.20;62.78
55263;BME280;41125;48.752;9.168;2023-05-29T02:01:53;96867.50;;;13.19;62.65
55263;BME280;41125;48.752;9.168;2023-05-29T02:02:25;96863.19;;;13.18;62.55
55263;BME280;41125;48.752;9.168;2023-05-29T02:02:58;96867.81;;;13.18;62.67
55263;BME280;41125;48.752;9.168;2023-05-29T02:03:29;96864.28;;;13.17;62.78
55263;BME280;41125;48.752;9.168;2023-05-29T02:04:01;96871.97;;;13.15;62.61
55263;BME280;41125;48.752;9.168;2023-05-29T02:04:32;96871.16;;;13.15;62.77
55263;BME280;41125;48.752;9.168;2023-05-29T02:05:05;96867.63;;;13.14;62.44
55263;BME280;41125;48.752;9.168;2023-05-29T02:05:37;96872.59;;;13.12;63.04
55263;BME280;41125;48.752;9.168;2023-05-29T02:06:08;96874.19;;;13.13;62.94
55263;BME280;41125;48.752;9.168;2023-05-29T02:06:40;96870.97;;;13.11;62.80
55263;BME280;41125;48.752;9.168;2023-05-29T02:07:12;96867.13;;;13.12;62.70
55263;BME280;41125;48.752;9.168;2023-05-29T02:07:49;96871.78;;;13.12;63.33
55263;BME280;41125;48.752;9.168;2023-05-29T02:08:20;96874.81;;;13.10;63.13
55263;BME280;41125;48.752;9.168;2023-05-29T02:08:52;96874.81;;;13.10;63.35
55263;BME280;41125;48.752;9.168;2023-05-29T02:09:23;96869.34;;;13.10;63.21
55263;BME280;41125;48.752;9.168;2023-05-29T02:09:54;96873.19;;;13.09;63.45
55263;BME280;41125;48.752;9.168;2023-05-29T02:10:25;96862.31;;;13.09;63.06
55263;BME280;41125;48.752;9.168;2023-05-29T02:10:57;96866.13;;;13.08;63.51
55263;BME280;41125;48.752;9.168;2023-05-29T02:11:28;96866.13;;;13.08;63.33
55263;BME280;41125;48.752;9.168;2023-05-29T02:11:59;96866.13;;;13.08;63.40
55263;BME280;41125;48.752;9.168;2023-05-29T02:12:31;96871.59;;;13.08;63.44
55263;BME280;41125;48.752;9.168;2023-05-29T02:13:03;96871.59;;;13.08;63.48
55263;BME280;41125;48.752;9.168;2023-05-29T02:13:37;96868.84;;;13.08;63.33
55263;BME280;41125;48.752;9.168;2023-05-29T02:14:08;96866.13;;;13.08;63.22
55263;BME280;41125;48.752;9.168;2023-05-29T02:14:39;96864.53;;;13.07;63.48
55263;BME280;41125;48.752;9.168;2023-05-29T02:15:11;96866.75;;;13.05;63.66
55263;BME280;41125;48.752;9.168;2023-05-29T02:15:42;96860.50;;;13.04;63.50
55263;BME280;41125;48.752;9.168;2023-05-29T02:16:14;96865.12;;;13.04;63.47
55263;BME280;41125;48.752;9.168;2023-05-29T02:16:47;96865.94;;;13.04;63.28
55263;BME280;41125;48.752;9.168;2023-05-29T02:17:19;96860.50;;;13.04;63.24
55263;BME280;41125;48.752;9.168;2023-05-29T02:17:50;96861.59;;;13.03;63.06
55263;BME280;41125;48.752;9.168;2023-05-29T02:18:22;96862.41;;;13.04;63.34
55263;BME280;41125;48.752;9.168;2023-05-29T02:18:54;96856.16;;;13.03;62.97
55263;BME280;41125;48.752;9.168;2023-05-29T02:19:26;96857.28;;;13.02;63.36
55263;BME280;41125;48.752;9.168;2023-05-29T02:19:57;96863.84;;;13.01;63.20
55263;BME280;41125;48.752;9.168;2023-05-29T02:20:29;96864.94;;;13.00;63.55
55263;BME280;41125;48.752;9.168;2023-05-29T02:21:00;96864.62;;;13.02;63.44
55263;BME280;41125;48.752;9.168;2023-05-29T02:21:32;96859.50;;;13.00;63.45
55263;BME280;41125;48.752;9.168;2023-05-29T02:22:04;96860.31;;;13.01;63.53
55263;BME280;41125;48.752;9.168;2023-05-29T02:22:36;96855.66;;;13.01;63.46
55263;BME280;41125;48.752;9.168;2023-05-29T02:23:10;96856.47;;;13.02;63.08
55263;BME280;41125;48.752;9.168;2023-05-29T02:23:42;96861.13;;;13.01;63.45
55263;BME280;41125;48.752;9.168;2023-05-29T02:24:13;96861.91;;;13.02;63.24
55263;BME280;41125;48.752;9.168;2023-05-29T02:24:45;96859.19;;;13.02;63.27
55263;BME280;41125;48.752;9.168;2023-05-29T02:25:16;96856.47;;;13.02;63.55
55263;BME280;41125;48.752;9.168;2023-05-29T02:25:50;96855.66;;;13.01;63.44
55263;BME280;41125;48.752;9.168;2023-05-29T02:26:22;96856.47;;;13.02;62.95
55263;BME280;41125;48.752;9.168;2023-05-29T02:26:54;96856.47;;;13.02;62.98
55263;BME280;41125;48.752;9.168;2023-05-29T02:27:25;96854.84;;;13.01;63.29
55263;BME280;41125;48.752;9.168;2023-05-29T02:27:57;96853.75;;;13.02;63.12
55263;BME280;41125;48.752;9.168;2023-05-29T02:28:28;96851.03;;;13.02;62.81
55263;BME280;41125;48.752;9.168;2023-05-29T02:28:59;96850.22;;;13.01;63.35
55263;BME280;41125;48.752;9.168;2023-05-29T02:29:30;96856.47;;;13.02;63.24
55263;BME280;41125;48.752;9.168;2023-05-29T02:30:03;96856.47;;;13.02;63.39
55263;BME280;41125;48.752;9.168;2023-05-29T02:30:34;96853.75;;;13.02;63.28
55263;BME280;41125;48.752;9.168;2023-05-29T02:31:06;96849.91;;;13.03;63.35
55263;BME280;41125;48.752;9.168;2023-05-29T02:31:37;96853.75;;;13.02;63.27
55263;BME280;41125;48.752;9.168;2023-05-29T02:32:08;96849.09;;;13.02;63.17
55263;BME280;41125;48.752;9.168;2023-05-29T02:32:40;96848.31;;;13.02;63.13
55263;BME280;41125;48.752;9.168;2023-05-29T02:33:11;96855.97;;;13.00;63.30
55263;BME280;41125;48.752;9.168;2023-05-29T02:33:46;96853.25;;;13.00;63.06
55263;BME280;41125;48.752;9.168;2023-05-29T02:34:17;96854.84;;;13.01;63.65
55263;BME280;41125;48.752;9.168;2023-05-29T02:34:52;96855.16;;;12.99;63.40
55263;BME280;41125;48.752;9.168;2023-05-29T02:35:23;96858.19;;;12.98;63.43
55263;BME280;41125;48.752;9.168;2023-05-29T02:35:54;96856.09;;;12.95;63.44
55263;BME280;41125;48.752;9.168;2023-05-29T02:36:26;96856.09;;;12.95;63.91
55263;BME280;41125;48.752;9.168;2023-05-29T02:36:58;96856.09;;;12.95;64.05
55263;BME280;41125;48.752;9.168;2023-05-29T02:37:30;96862.34;;;12.95;64.13
55263;BME280;41125;48.752;9.168;2023-05-29T02:38:02;96854.47;;;12.94;63.87
55263;BME280;41125;48.752;9.168;2023-05-29T02:38:33;96852.87;;;12.93;64.29
55263;BME280;41125;48.752;9.168;2023-05-29T02:39:05;96859.72;;;12.90;64.02
55263;BME280;41125;48.752;9.168;2023-05-29T02:39:37;96856.81;;;12.87;64.54
55263;BME280;41125;48.752;9.168;2023-05-29T02:40:09;96861.75;;;12.85;64.00
55263;BME280;41125;48.752;9.168;2023-05-29T02:40:41;96862.88;;;12.84;64.20
55263;BME280;41125;48.752;9.168;2023-05-29T02:41:12;96862.56;;;12.85;64.05
55263;BME280;41125;48.752;9.168;2023-05-29T02:41:43;96865.59;;;12.84;64.48
55263;BME280;41125;48.752;9.168;2023-05-29T02:42:14;96862.41;;;12.82;65.14
55263;BME280;41125;48.752;9.168;2023-05-29T02:42:46;96863.03;;;12.79;65.36
55263;BME280;41125;48.752;9.168;2023-05-29T02:43:17;96871.00;;;12.75;65.87
55263;BME280;41125;48.752;9.168;2023-05-29T02:43:49;96862.03;;;12.74;65.20
55263;BME280;41125;48.752;9.168;2023-05-29T02:44:20;96863.13;;;12.73;64.93
55263;BME280;41125;48.752;9.168;2023-05-29T02:44:51;96858.19;;;12.75;65.04
55263;BME280;41125;48.752;9.168;2023-05-29T02:45:23;96860.91;;;12.75;64.70
55263;BME280;41125;48.752;9.168;2023-05-29T02:45:54;96862.03;;;12.74;64.48
55263;BME280;41125;48.752;9.168;2023-05-29T02:46:25;96864.75;;;12.74;64.40
55263;BME280;41125;48.752;9.168;2023-05-29T02:46:56;96862.03;;;12.74;64.51
55263;BME280;41125;48.752;9.168;2023-05-29T02:47:27;96856.56;;;12.74;64.51
55263;BME280;41125;48.752;9.168;2023-05-29T02:47:59;96859.31;;;12.74;64.16
55263;BME280;41125;48.752;9.168;2023-05-29T02:48:30;96864.75;;;12.74;64.06
55263;BME280;41125;48.752;9.168;2023-05-29T02:49:02;96862.03;;;12.74;64.40
55263;BME280;41125;48.752;9.168;2023-05-29T02:49:34;96858.50;;;12.74;64.08
55263;BME280;41125;48.752;9.168;2023-05-29T02:50:06;96854.97;;;12.73;64.09
55263;BME280;41125;48.752;9.168;2023-05-29T02:50:39;96856.88;;;12.73;64.43
55263;BME280;41125;48.752;9.168;2023-05-29T02:51:10;96861.22;;;12.74;64.58
55263;BME280;41125;48.752;9.168;2023-05-29T02:51:42;96864.25;;;12.72;64.57
55263;BME280;41125;48.752;9.168;2023-05-29T02:52:13;96863.44;;;12.72;64.72
55263;BME280;41125;48.752;9.168;2023-05-29T02:52:44;96858.00;;;12.72;64.71
55263;BME280;41125;48.752;9.168;2023-05-29T02:53:15;96864.56;;;12.71;64.50
55263;BME280;41125;48.752;9.168;2023-05-29T02:53:47;96856.69;;;12.69;64.56
55263;BME280;41125;48.752;9.168;2023-05-29T02:54:19;96858.31;;;12.70;64.54
55263;BME280;41125;48.752;9.168;2023-05-29T02:54:50;96857.19;;;12.71;64.45
55263;BME280;41125;48.752;9.168;2023-05-29T02:55:22;96850.12;;;12.70;64.51
55263;BME280;41125;48.752;9.168;2023-05-29T02:55:53;96846.31;;;12.71;64.45
55263;BME280;41125;48.752;9.168;2023-05-29T02:56:24;96851.75;;;12.71;64.39
55263;BME280;41125;48.752;9.168;2023-05-29T02:56:55;96852.84;;;12.70;64.58
55263;BME280;41125;48.752;9.168;2023-05-29T02:57:27;96841.47;;;12.68;64.48
55263;BME280;41125;48.752;9.168;2023-05-29T02:57:58;96849.31;;;12.70;64.21
55263;BME280;41125;48.752;9.168;2023-05-29T02:58:30;96853.16;;;12.69;64.56
55263;BME280;41125;48.752;9.168;2023-05-29T02:59:02;96850.12;;;12.70;64.69
55263;BME280;41125;48.752;9.168;2023-05-29T02:59:33;96853.97;;;12.69;64.54
55263;BME280;41125;48.752;9.168;2023-05-29T03:00:05;96848.53;;;12.69;64.79